Weather at Kingston Norman Rogers Airport

Public forecast

Using degrees Celsius for public forecast. Weather courtesy of forecast.io.

Current aviation weather report (METAR) for Kingston Norman Rogers Airport

Retrieved 2020/11/30 13:20 UTC (0 seconds ago):

CYGK 301320Z 05004KT 15SM -RA OVC066 06/01 A2979 RMK AC8 SLP090

Aviation forecast (TAF) for Kingston Norman Rogers Airport

Retrieved 2020/11/30 13:39 UTC (0 seconds ago):

TAF TAF CYGK 301238Z 3013/0101 15010KT P6SM OVC080 TEMPO 3013/3015 P6SM -RA SCT020 OVC030 FM301500 15015KT 6SM -RA BR SCT007 OVC015 TEMPO 3015/3017 2SM -RA BR OVC007 FM301700 05015G25KT 2SM -RA BR OVC007 TEMPO 3017/0101 6SM -RA BR OVC010 RMK NXT FCST BY 302000Z